createdAt,value
2022-10-09T00:01:28.108Z,8.82
2022-10-09T00:03:57.749Z,6.10
2022-10-09T00:06:30.132Z,8.88
2022-10-09T00:08:58.675Z,7.18
2022-10-09T00:11:29.534Z,5.32
2022-10-09T00:13:58.653Z,7.93
2022-10-09T00:16:27.579Z,9.07
2022-10-09T00:18:56.464Z,15.63
2022-10-09T00:21:26.452Z,5.25
2022-10-09T00:23:59.024Z,6.78
2022-10-09T00:26:28.004Z,7.50
2022-10-09T00:28:57.037Z,8.05
2022-10-09T00:31:25.879Z,6.90
2022-10-09T00:33:54.365Z,7.28
2022-10-09T00:36:24.537Z,9.43
2022-10-09T00:38:54.648Z,7.38
2022-10-09T00:41:26.858Z,7.30
2022-10-09T00:43:57.417Z,7.80
2022-10-09T00:46:31.446Z,10.20
2022-10-09T00:49:10.427Z,6.40
2022-10-09T00:51:39.236Z,8.85
2022-10-09T00:54:13.043Z,5.60
2022-10-09T00:56:43.046Z,12.10
2022-10-09T00:59:12.879Z,5.00
2022-10-09T01:01:42.366Z,6.78
2022-10-09T01:04:10.741Z,10.13
2022-10-09T01:06:55.096Z,6.88
2022-10-09T01:09:28.870Z,6.38
2022-10-09T01:12:05.548Z,5.35
2022-10-09T01:14:39.717Z,11.57
2022-10-09T01:17:16.643Z,11.27
2022-10-09T01:19:56.425Z,4.00
2022-10-09T01:22:41.246Z,11.27
2022-10-09T01:25:12.509Z,6.50
2022-10-09T01:27:42.502Z,9.00
2022-10-09T01:30:13.602Z,8.40
2022-10-09T01:32:45.491Z,7.05
2022-10-09T01:35:15.692Z,7.70
2022-10-09T01:37:47.052Z,10.13
2022-10-09T01:40:18.396Z,7.65
2022-10-09T01:42:48.428Z,14.40
2022-10-09T01:45:17.916Z,9.40
2022-10-09T01:47:46.483Z,13.25
2022-10-09T01:50:23.142Z,6.13
2022-10-09T01:52:54.506Z,8.07
2022-10-09T01:55:37.396Z,18.52
2022-10-09T01:58:16.408Z,8.10
2022-10-09T02:00:48.353Z,6.25
2022-10-09T02:03:17.810Z,9.75
2022-10-09T02:05:49.601Z,10.27
2022-10-09T02:08:20.313Z,11.13
2022-10-09T02:10:50.712Z,9.77
2022-10-09T02:13:22.707Z,6.75
2022-10-09T02:15:54.839Z,7.45
2022-10-09T02:18:30.778Z,9.40
2022-10-09T02:21:04.296Z,9.23
2022-10-09T02:23:33.227Z,11.10
2022-10-09T02:26:01.636Z,7.75
2022-10-09T02:28:31.668Z,6.18
2022-10-09T02:31:05.445Z,12.63
2022-10-09T02:33:34.726Z,9.07
2022-10-09T02:36:04.414Z,10.60
2022-10-09T02:38:32.570Z,10.82
2022-10-09T02:41:01.418Z,13.52
2022-10-09T02:43:31.349Z,13.10
2022-10-09T02:45:59.588Z,9.20
2022-10-09T02:48:27.739Z,9.52
2022-10-09T02:50:56.103Z,11.18
2022-10-09T02:53:24.673Z,8.95
2022-10-09T02:55:53.060Z,12.65
2022-10-09T02:58:21.516Z,13.73
2022-10-09T03:00:51.985Z,9.25
2022-10-09T03:03:21.251Z,7.82
2022-10-09T03:05:49.659Z,9.40
2022-10-09T03:08:18.935Z,9.68
2022-10-09T03:10:47.475Z,7.10
2022-10-09T03:13:15.595Z,8.93
2022-10-09T03:15:43.948Z,9.80
2022-10-09T03:18:13.615Z,8.38
2022-10-09T03:20:42.019Z,9.68
2022-10-09T03:23:10.328Z,10.95
2022-10-09T03:25:38.465Z,11.32
2022-10-09T03:28:06.637Z,7.60
2022-10-09T03:30:43.023Z,11.70
2022-10-09T03:33:11.244Z,7.65
2022-10-09T03:35:41.986Z,8.68
2022-10-09T03:38:10.181Z,6.80
2022-10-09T03:40:38.523Z,11.60
2022-10-09T03:43:06.776Z,10.27
2022-10-09T03:45:35.495Z,9.35
2022-10-09T03:48:03.605Z,7.90
2022-10-09T03:50:32.019Z,9.15
2022-10-09T03:53:01.649Z,7.72
2022-10-09T03:55:29.888Z,8.20
2022-10-09T03:57:58.139Z,11.50
2022-10-09T04:00:26.690Z,12.82
2022-10-09T04:02:54.849Z,7.68
2022-10-09T04:05:23.787Z,10.23
2022-10-09T04:07:51.950Z,10.07
2022-10-09T04:10:21.530Z,7.60
2022-10-09T04:12:49.891Z,9.40
2022-10-09T04:15:18.461Z,8.13
2022-10-09T04:17:46.631Z,10.27
2022-10-09T04:20:14.761Z,8.30
2022-10-09T04:22:42.935Z,9.93
2022-10-09T04:25:11.122Z,9.18
2022-10-09T04:27:40.826Z,6.97
2022-10-09T04:30:10.912Z,9.38
2022-10-09T04:33:05.507Z,10.00
2022-10-09T04:35:35.210Z,11.90
2022-10-09T04:38:03.244Z,11.82
2022-10-09T04:40:31.415Z,11.27
2022-10-09T04:43:00.931Z,13.43
2022-10-09T04:45:29.653Z,11.38
2022-10-09T04:47:57.776Z,10.50
2022-10-09T04:50:26.198Z,12.52
2022-10-09T04:53:00.146Z,11.93
2022-10-09T04:55:28.415Z,11.82
2022-10-09T04:57:56.623Z,10.35
2022-10-09T05:00:26.364Z,12.65
2022-10-09T05:02:54.779Z,9.50
2022-10-09T05:05:23.589Z,9.07
2022-10-09T05:07:52.093Z,12.50
2022-10-09T05:10:20.342Z,13.73
2022-10-09T05:12:48.577Z,9.35
2022-10-09T05:15:17.019Z,9.07
2022-10-09T05:17:46.496Z,8.45
2022-10-09T05:20:14.697Z,7.80
2022-10-09T05:22:45.186Z,7.40
2022-10-09T05:25:13.586Z,8.95
2022-10-09T05:27:42.022Z,10.13
2022-10-09T05:30:11.585Z,8.23
2022-10-09T05:32:39.698Z,10.63
2022-10-09T05:35:10.396Z,11.18
2022-10-09T05:37:38.539Z,13.07
2022-10-09T05:40:08.135Z,9.75
2022-10-09T05:42:36.563Z,14.38
2022-10-09T05:45:05.186Z,21.73
2022-10-09T05:47:33.269Z,11.82
2022-10-09T05:50:01.595Z,13.57
2022-10-09T05:52:31.290Z,11.27
2022-10-09T05:54:59.918Z,12.00
2022-10-09T05:57:29.249Z,12.95
2022-10-09T05:59:57.471Z,9.02
2022-10-09T06:02:26.128Z,10.18
2022-10-09T06:04:54.233Z,12.25
2022-10-09T06:07:22.429Z,10.77
2022-10-09T06:09:52.067Z,13.65
2022-10-09T06:12:20.085Z,15.57
2022-10-09T06:14:48.121Z,13.85
2022-10-09T06:17:16.342Z,14.48
2022-10-09T06:19:44.568Z,13.50
2022-10-09T06:22:12.949Z,13.40
2022-10-09T06:24:41.169Z,13.90
2022-10-09T06:27:13.192Z,13.90
2022-10-09T06:29:41.578Z,13.30
2022-10-09T06:32:09.929Z,13.55
2022-10-09T06:34:38.202Z,9.80
2022-10-09T06:37:06.285Z,10.95
2022-10-09T06:39:34.535Z,10.93
2022-10-09T06:42:04.123Z,15.70
2022-10-09T06:44:44.541Z,11.30
2022-10-09T06:47:12.710Z,11.98
2022-10-09T06:49:41.109Z,14.30
2022-10-09T06:52:09.698Z,11.80
2022-10-09T06:54:38.238Z,11.07
2022-10-09T06:57:06.379Z,11.65
2022-10-09T06:59:34.526Z,11.60
2022-10-09T07:02:04.661Z,9.95
2022-10-09T07:04:32.846Z,17.42
2022-10-09T07:07:01.262Z,14.07
2022-10-09T07:09:29.466Z,8.77
2022-10-09T07:11:57.703Z,7.10
2022-10-09T07:14:26.264Z,8.77
2022-10-09T07:16:54.805Z,5.13
2022-10-09T07:19:24.527Z,6.50
2022-10-09T07:21:53.047Z,6.00
2022-10-09T07:24:21.444Z,3.92
2022-10-09T07:26:50.108Z,6.65
2022-10-09T07:29:19.727Z,6.20
2022-10-09T07:31:49.938Z,5.30
2022-10-09T07:34:18.593Z,4.43
2022-10-09T07:36:48.207Z,7.40
2022-10-09T07:39:18.987Z,6.82
2022-10-09T07:41:47.789Z,7.03
2022-10-09T07:44:16.150Z,7.57
2022-10-09T07:46:44.445Z,6.68
2022-10-09T07:49:12.771Z,7.53
2022-10-09T07:51:40.731Z,9.50
2022-10-09T07:54:10.425Z,5.03
2022-10-09T07:56:39.136Z,4.82
2022-10-09T07:59:12.783Z,8.82
2022-10-09T08:01:42.213Z,7.55
2022-10-09T08:04:10.821Z,9.35
2022-10-09T08:06:39.028Z,5.50
2022-10-09T08:09:08.313Z,7.45
2022-10-09T08:11:40.859Z,8.15
2022-10-09T08:14:18.082Z,6.05
2022-10-09T08:16:47.943Z,6.60
2022-10-09T08:19:16.632Z,9.32
2022-10-09T08:21:45.010Z,8.43
2022-10-09T08:24:13.432Z,6.78
2022-10-09T08:26:44.314Z,6.22
2022-10-09T08:29:16.195Z,7.35
2022-10-09T08:31:44.629Z,4.68
2022-10-09T08:34:13.014Z,7.15
2022-10-09T08:36:41.212Z,5.55
2022-10-09T08:39:09.439Z,8.40
2022-10-09T08:41:46.439Z,12.50
2022-10-09T08:44:20.268Z,9.60
2022-10-09T08:46:58.346Z,3.80
2022-10-09T08:49:32.466Z,5.90
2022-10-09T08:52:13.995Z,5.97
2022-10-09T08:54:42.465Z,8.05
2022-10-09T09:00:16.357Z,6.53
2022-10-09T09:03:02.895Z,5.95
2022-10-09T09:05:40.954Z,8.85
2022-10-09T09:08:27.471Z,7.65
2022-10-09T09:11:12.295Z,8.50
2022-10-09T09:13:51.170Z,5.63
2022-10-09T09:16:29.971Z,4.75
2022-10-09T09:19:14.333Z,5.57
2022-10-09T09:21:49.082Z,7.03
2022-10-09T09:24:21.261Z,7.75
2022-10-09T09:26:51.844Z,8.20
2022-10-09T09:29:24.854Z,6.20
2022-10-09T09:31:58.477Z,5.53
2022-10-09T09:34:35.760Z,5.90
2022-10-09T09:37:04.083Z,7.80
2022-10-09T09:40:24.300Z,6.03
2022-10-09T09:42:23.188Z,8.93
2022-10-09T09:44:59.070Z,5.97
2022-10-09T09:47:34.699Z,3.90
2022-10-09T09:50:04.903Z,7.20
2022-10-09T09:52:38.837Z,5.25
2022-10-09T09:55:08.010Z,3.80
2022-10-09T09:57:41.372Z,5.22
2022-10-09T10:00:20.813Z,6.72
2022-10-09T10:02:49.471Z,7.32
2022-10-09T10:05:23.207Z,4.47
2022-10-09T10:07:51.998Z,7.82
2022-10-09T10:10:25.588Z,4.53
2022-10-09T10:12:58.257Z,4.20
2022-10-09T10:15:29.540Z,5.40
2022-10-09T10:18:03.295Z,7.30
2022-10-09T10:20:33.306Z,5.68
2022-10-09T10:23:02.226Z,11.60
2022-10-09T10:25:34.834Z,4.95
2022-10-09T10:28:07.068Z,7.63
2022-10-09T10:31:04.372Z,10.95
2022-10-09T10:33:35.368Z,4.35
2022-10-09T10:36:04.290Z,4.03
2022-10-09T10:38:37.070Z,6.88
2022-10-09T10:41:13.860Z,5.57
2022-10-09T10:43:45.097Z,8.30
2022-10-09T10:46:24.076Z,6.00
2022-10-09T10:48:52.423Z,4.70
2022-10-09T10:51:52.159Z,5.05
2022-10-09T10:54:31.745Z,5.50
2022-10-09T10:57:08.877Z,9.93
2022-10-09T10:59:40.857Z,5.18
2022-10-09T11:02:32.679Z,4.65
2022-10-09T11:05:13.866Z,7.03
2022-10-09T11:07:51.384Z,7.32
2022-10-09T11:10:29.156Z,7.18
2022-10-09T11:13:02.704Z,6.75
2022-10-09T11:15:38.701Z,3.50
2022-10-09T11:18:25.815Z,3.33
2022-10-09T11:21:06.677Z,3.33
2022-10-09T11:23:49.448Z,4.88
2022-10-09T11:26:27.149Z,5.13
2022-10-09T11:29:02.116Z,2.72
2022-10-09T11:31:36.681Z,3.53
2022-10-09T11:34:13.601Z,7.07
2022-10-09T11:36:44.096Z,7.75
2022-10-09T11:39:18.166Z,3.28
2022-10-09T11:41:48.796Z,4.00
2022-10-09T11:44:35.814Z,5.15
2022-10-09T11:47:11.554Z,4.93
2022-10-09T11:49:55.061Z,4.00
2022-10-09T11:52:31.623Z,7.97
2022-10-09T11:55:09.946Z,5.85
2022-10-09T11:57:38.471Z,3.88
2022-10-09T12:00:10.638Z,3.22
2022-10-09T12:02:39.727Z,3.90
2022-10-09T12:05:19.603Z,4.55
2022-10-09T12:07:48.175Z,3.88
2022-10-09T12:10:34.802Z,4.18
2022-10-09T12:13:05.831Z,3.20
2022-10-09T12:15:40.922Z,4.85
2022-10-09T12:18:18.270Z,3.63
2022-10-09T12:20:50.498Z,3.38
2022-10-09T12:23:31.059Z,3.70
2022-10-09T12:26:03.731Z,3.78
2022-10-09T12:28:36.863Z,4.10
2022-10-09T12:31:16.825Z,3.47
2022-10-09T12:33:50.673Z,4.18
2022-10-09T12:36:26.544Z,5.35
2022-10-09T12:39:00.080Z,4.88
2022-10-09T12:41:38.168Z,2.78
2022-10-09T12:44:23.486Z,3.53
2022-10-09T12:46:58.815Z,3.67
2022-10-09T12:49:33.508Z,2.00
2022-10-09T12:52:19.455Z,1.92
2022-10-09T12:54:53.533Z,3.38
2022-10-09T12:57:31.327Z,2.83
2022-10-09T13:00:04.932Z,6.47
2022-10-09T13:02:36.799Z,4.82
2022-10-09T13:05:06.209Z,6.50
2022-10-09T13:07:35.793Z,3.83
2022-10-09T13:10:08.342Z,6.78
2022-10-09T13:12:36.594Z,4.25
2022-10-09T13:15:06.946Z,5.85
2022-10-09T13:17:38.468Z,4.45
2022-10-09T13:20:26.907Z,4.03
2022-10-09T13:22:59.274Z,2.28
2022-10-09T13:25:31.163Z,7.28
2022-10-09T13:27:59.955Z,2.28
2022-10-09T13:30:54.502Z,3.92
2022-10-09T13:33:23.323Z,3.13
2022-10-09T13:35:51.591Z,3.70
2022-10-09T13:38:23.981Z,10.20
2022-10-09T13:40:54.063Z,9.20
2022-10-09T13:43:26.673Z,3.35
2022-10-09T13:45:55.820Z,4.90
2022-10-09T13:48:26.986Z,3.45
2022-10-09T13:50:59.334Z,2.25
2022-10-09T13:53:29.763Z,4.45
2022-10-09T13:56:00.821Z,3.47
2022-10-09T13:58:31.500Z,4.32
2022-10-09T14:01:00.469Z,2.88
2022-10-09T14:03:29.968Z,3.03
2022-10-09T14:06:04.613Z,4.28
2022-10-09T14:08:36.636Z,4.63
2022-10-09T14:11:06.779Z,7.03
2022-10-09T14:13:36.173Z,6.05
2022-10-09T14:16:06.325Z,4.53
2022-10-09T14:18:35.757Z,4.18
2022-10-09T14:21:14.650Z,3.85
2022-10-09T14:23:46.535Z,7.65
2022-10-09T14:26:14.888Z,2.97
2022-10-09T14:28:44.169Z,8.65
2022-10-09T14:31:14.629Z,6.03
2022-10-09T14:33:45.253Z,6.55
2022-10-09T14:36:16.999Z,4.88
2022-10-09T14:38:50.181Z,7.60
2022-10-09T14:41:20.547Z,4.35
2022-10-09T14:43:55.734Z,8.65
2022-10-09T14:46:27.330Z,10.25
2022-10-09T14:48:56.905Z,6.55
2022-10-09T14:51:28.159Z,7.07
2022-10-09T14:53:59.117Z,3.08
2022-10-09T14:56:28.952Z,4.35
2022-10-09T14:59:01.192Z,8.00
2022-10-09T15:01:32.714Z,4.07
2022-10-09T15:04:02.190Z,9.10
2022-10-09T15:06:30.826Z,10.65
2022-10-09T15:09:05.568Z,5.35
2022-10-09T15:11:35.913Z,9.45
2022-10-09T15:14:06.614Z,7.55
2022-10-09T15:16:37.365Z,5.78
2022-10-09T15:19:06.241Z,6.75
2022-10-09T15:21:36.395Z,6.22
2022-10-09T15:24:07.286Z,6.30
2022-10-09T15:26:37.021Z,4.40
2022-10-09T15:29:08.319Z,4.80
2022-10-09T15:31:40.036Z,5.40
2022-10-09T15:34:11.796Z,8.05
2022-10-09T15:36:44.509Z,11.13
2022-10-09T15:39:15.404Z,5.20
2022-10-09T15:41:45.271Z,7.00
2022-10-09T15:44:18.655Z,7.25
2022-10-09T15:46:49.784Z,8.50
2022-10-09T15:49:18.955Z,10.07
2022-10-09T15:51:48.935Z,5.10
2022-10-09T15:54:19.515Z,7.40
2022-10-09T15:56:49.137Z,6.00
2022-10-09T15:59:18.312Z,12.02
2022-10-09T16:01:46.697Z,11.45
2022-10-09T16:04:16.452Z,12.25
2022-10-09T16:06:46.776Z,11.15
2022-10-09T16:09:16.917Z,8.93
2022-10-09T16:11:47.450Z,9.75
2022-10-09T16:14:15.827Z,14.80
2022-10-09T16:16:46.083Z,8.02
2022-10-09T16:19:15.991Z,8.98
2022-10-09T16:21:45.660Z,18.85
2022-10-09T16:24:13.908Z,6.82
2022-10-09T16:26:42.784Z,7.85
2022-10-09T16:29:14.946Z,7.50
2022-10-09T16:31:45.309Z,7.18
2022-10-09T16:34:16.095Z,5.90
2022-10-09T16:36:46.386Z,11.27
2022-10-09T16:39:14.803Z,14.73
2022-10-09T16:41:43.574Z,36.63
2022-10-09T16:44:17.036Z,41.45
2022-10-09T16:46:46.064Z,46.83
2022-10-09T16:49:21.273Z,29.88
2022-10-09T16:51:53.115Z,21.95
2022-10-09T16:54:21.341Z,15.95
2022-10-09T16:56:50.478Z,21.98
2022-10-09T16:59:21.854Z,30.08
2022-10-09T17:01:52.392Z,12.32
2022-10-09T17:04:22.939Z,6.25
2022-10-09T17:06:52.691Z,6.05
2022-10-09T17:09:22.067Z,10.55
2022-10-09T17:11:50.599Z,7.00
2022-10-09T17:14:20.409Z,14.88
2022-10-09T17:16:49.077Z,11.63
2022-10-09T17:19:17.773Z,9.20
2022-10-09T17:21:46.448Z,7.15
2022-10-09T17:24:16.280Z,36.60
2022-10-09T17:26:46.340Z,50.88
2022-10-09T17:29:16.244Z,13.95
2022-10-09T17:31:47.845Z,12.90
2022-10-09T17:34:16.407Z,10.07
2022-10-09T17:36:46.268Z,17.67
2022-10-09T17:39:17.485Z,6.28
2022-10-09T17:41:47.473Z,9.27
2022-10-09T17:44:17.764Z,6.05
2022-10-09T17:46:47.441Z,9.52
2022-10-09T17:49:16.605Z,23.42
2022-10-09T17:51:45.166Z,10.75
2022-10-09T17:54:17.036Z,7.50
2022-10-09T17:56:47.262Z,8.82
2022-10-09T17:59:17.383Z,14.50
2022-10-09T18:01:48.782Z,6.35
2022-10-09T18:04:18.237Z,5.10
2022-10-09T18:06:47.854Z,6.05
2022-10-09T18:09:17.752Z,6.72
2022-10-09T18:11:47.344Z,5.32
2022-10-09T18:14:17.131Z,8.95
2022-10-09T18:16:47.267Z,7.30
2022-10-09T18:19:19.913Z,5.72
2022-10-09T18:21:50.535Z,6.80
2022-10-09T18:24:19.522Z,8.98
2022-10-09T18:26:48.165Z,5.95
2022-10-09T18:29:16.376Z,6.00
2022-10-09T18:31:45.780Z,5.18
2022-10-09T18:34:16.522Z,4.88
2022-10-09T18:36:46.266Z,6.30
2022-10-09T18:39:16.719Z,6.60
2022-10-09T18:41:47.109Z,7.10
2022-10-09T18:44:19.933Z,9.82
2022-10-09T18:46:50.574Z,7.20
2022-10-09T18:49:26.296Z,9.05
2022-10-09T18:51:55.904Z,8.68
2022-10-09T18:54:26.923Z,5.82
2022-10-09T18:56:56.047Z,4.57
2022-10-09T18:59:25.826Z,4.70
2022-10-09T19:01:54.161Z,5.32
2022-10-09T19:04:24.962Z,4.78
2022-10-09T19:06:55.550Z,5.80
2022-10-09T19:09:23.931Z,6.05
2022-10-09T19:11:53.503Z,10.57
2022-10-09T19:14:22.271Z,3.97
2022-10-09T19:16:50.797Z,4.80
2022-10-09T19:19:19.320Z,10.02
2022-10-09T19:21:50.769Z,3.10
2022-10-09T19:24:20.901Z,6.22
2022-10-09T19:26:50.670Z,4.97
2022-10-09T19:29:19.155Z,4.03
2022-10-09T19:31:50.462Z,4.72
2022-10-09T19:34:19.828Z,4.30
2022-10-09T19:36:52.387Z,5.10
2022-10-09T19:39:22.765Z,5.50
2022-10-09T19:41:52.943Z,3.67
2022-10-09T19:44:22.466Z,5.00
2022-10-09T19:46:52.112Z,4.78
2022-10-09T19:49:21.453Z,8.90
2022-10-09T19:51:51.438Z,6.78
2022-10-09T19:54:21.041Z,4.53
2022-10-09T19:56:50.212Z,3.92
2022-10-09T19:59:18.621Z,8.75
2022-10-09T20:01:48.461Z,4.55
2022-10-09T20:04:17.409Z,9.40
2022-10-09T20:06:47.676Z,7.68
2022-10-09T20:09:18.654Z,7.35
2022-10-09T20:11:48.303Z,12.45
2022-10-09T20:14:16.655Z,11.65
2022-10-09T20:16:46.128Z,8.60
2022-10-09T20:19:14.387Z,11.82
2022-10-09T20:21:42.335Z,11.68
2022-10-09T20:24:10.927Z,16.30
2022-10-09T20:26:43.322Z,9.02
2022-10-09T20:29:12.174Z,9.85
2022-10-09T20:31:41.393Z,10.25
2022-10-09T20:34:10.149Z,7.90
2022-10-09T20:36:40.459Z,7.88
2022-10-09T20:39:11.642Z,8.15
2022-10-09T20:41:43.148Z,7.85
2022-10-09T20:44:13.308Z,9.20
2022-10-09T20:46:42.787Z,7.38
2022-10-09T20:49:14.057Z,11.45
2022-10-09T20:51:43.754Z,13.43
2022-10-09T20:54:18.518Z,7.30
2022-10-09T20:56:49.852Z,7.50
2022-10-09T20:59:19.701Z,9.65
2022-10-09T21:02:08.212Z,7.47
2022-10-09T21:04:37.634Z,12.93
2022-10-09T21:07:06.146Z,10.35
2022-10-09T21:09:34.935Z,9.73
2022-10-09T21:14:59.697Z,7.28
2022-10-09T21:17:28.259Z,8.75
2022-10-09T21:19:58.195Z,10.35
2022-10-09T21:22:27.151Z,12.93
2022-10-09T21:24:55.912Z,8.50
2022-10-09T21:27:24.636Z,10.40
2022-10-09T21:29:53.067Z,15.00
2022-10-09T21:32:23.403Z,8.55
2022-10-09T21:34:52.399Z,10.48
2022-10-09T21:37:22.281Z,10.30
2022-10-09T21:39:51.616Z,9.50
2022-10-09T21:42:19.884Z,12.50
2022-10-09T21:44:49.059Z,9.98
2022-10-09T21:47:19.552Z,9.30
2022-10-09T21:49:51.007Z,9.93
2022-10-09T21:52:19.258Z,14.80
2022-10-09T21:54:47.897Z,10.52
2022-10-09T21:57:16.297Z,8.30
2022-10-09T21:59:44.680Z,8.25
2022-10-09T22:02:13.056Z,15.48
2022-10-09T22:04:41.414Z,4.57
2022-10-09T22:07:11.479Z,6.53
2022-10-09T22:09:40.211Z,5.57
2022-10-09T22:12:08.853Z,5.32
2022-10-09T22:14:37.591Z,6.65
2022-10-09T22:17:06.322Z,6.50
2022-10-09T22:19:34.746Z,5.47
2022-10-09T22:22:03.182Z,5.00
2022-10-09T22:24:33.137Z,9.43
2022-10-09T22:27:01.627Z,5.72
2022-10-09T22:29:30.000Z,8.82
2022-10-09T22:31:58.565Z,4.90
2022-10-09T22:34:26.963Z,5.68
2022-10-09T22:36:55.401Z,15.88
2022-10-09T22:39:24.234Z,5.47
2022-10-09T22:41:54.101Z,11.05
2022-10-09T22:44:22.609Z,8.23
2022-10-09T22:46:51.919Z,5.15
2022-10-09T22:49:20.418Z,4.18
2022-10-09T22:51:48.825Z,6.45
2022-10-09T22:54:19.023Z,7.38
2022-10-09T22:56:47.767Z,5.25
2022-10-09T22:59:19.389Z,5.57
2022-10-09T23:01:50.143Z,4.90
2022-10-09T23:04:20.391Z,7.30
2022-10-09T23:06:52.441Z,9.50
2022-10-09T23:09:21.835Z,8.95
2022-10-09T23:11:51.847Z,3.60
2022-10-09T23:14:21.694Z,4.28
2022-10-09T23:16:50.303Z,6.70
2022-10-09T23:19:19.091Z,21.48
2022-10-09T23:21:48.299Z,4.75
2022-10-09T23:24:18.054Z,5.38
2022-10-09T23:26:47.751Z,3.78
2022-10-09T23:29:18.095Z,6.93
2022-10-09T23:31:49.683Z,6.28
2022-10-09T23:34:18.256Z,7.00
2022-10-09T23:36:46.667Z,6.47
2022-10-09T23:39:15.115Z,16.05
2022-10-09T23:41:43.614Z,9.50
2022-10-09T23:44:12.112Z,7.78
2022-10-09T23:46:41.473Z,4.82
2022-10-09T23:49:12.092Z,5.07
2022-10-09T23:51:41.094Z,3.60
2022-10-09T23:54:10.039Z,7.07
2022-10-09T23:56:38.451Z,3.72
2022-10-09T23:59:08.056Z,5.93
